createdAt,value
2022-08-03T00:03:06.359Z,14.10
2022-08-03T00:13:14.417Z,15.90
2022-08-03T00:23:20.770Z,15.00
2022-08-03T00:33:27.193Z,16.20
2022-08-03T00:43:35.594Z,15.30
2022-08-03T00:53:42.296Z,15.90
2022-08-03T01:03:48.712Z,14.70
2022-08-03T01:14:18.970Z,14.80
2022-08-03T01:24:48.734Z,14.50
2022-08-03T01:35:06.594Z,15.30
2022-08-03T01:45:15.620Z,14.10
2022-08-03T01:55:23.830Z,14.10
2022-08-03T02:05:31.252Z,13.10
2022-08-03T02:15:39.417Z,13.50
2022-08-03T02:25:48.466Z,14.40
2022-08-03T02:35:55.444Z,13.00
2022-08-03T02:46:01.795Z,14.20
2022-08-03T02:56:08.913Z,12.80
2022-08-03T03:06:16.121Z,13.20
2022-08-03T03:16:27.575Z,12.70
2022-08-03T03:26:35.899Z,14.70
2022-08-03T03:36:44.789Z,13.20
2022-08-03T03:46:51.205Z,15.20
2022-08-03T03:56:58.219Z,14.20
2022-08-03T04:07:23.249Z,15.00
2022-08-03T04:17:30.387Z,16.40
2022-08-03T04:27:39.819Z,15.50
2022-08-03T04:37:50.032Z,14.10
2022-08-03T04:47:56.775Z,15.60
2022-08-03T04:58:04.277Z,14.90
2022-08-03T05:08:11.044Z,16.10
2022-08-03T05:18:18.050Z,14.60
2022-08-03T05:28:24.486Z,14.40
2022-08-03T05:38:34.561Z,14.80
2022-08-03T05:48:42.407Z,17.60
2022-08-03T05:58:48.729Z,21.00
2022-08-03T06:08:56.005Z,19.80
2022-08-03T06:19:02.399Z,14.80
2022-08-03T06:29:08.737Z,17.50
2022-08-03T06:39:16.338Z,25.30
2022-08-03T06:49:22.811Z,21.50
2022-08-03T07:00:07.339Z,24.00
2022-08-03T07:09:57.629Z,23.40
2022-08-03T07:20:07.863Z,20.50
2022-08-03T07:30:14.994Z,23.40
2022-08-03T07:40:21.421Z,21.50
2022-08-03T07:50:28.162Z,21.80
2022-08-03T08:00:35.187Z,20.30
2022-08-03T08:10:41.525Z,17.10
2022-08-03T08:20:47.842Z,16.80
2022-08-03T08:30:54.374Z,18.90
2022-08-03T08:41:00.762Z,14.90
2022-08-03T08:51:07.285Z,9.90
2022-08-03T09:01:13.647Z,9.00
2022-08-03T09:11:52.411Z,10.00
2022-08-03T09:22:18.683Z,10.70
2022-08-03T09:32:26.133Z,9.10
2022-08-03T09:42:32.677Z,12.70
2022-08-03T09:52:49.938Z,12.40
2022-08-03T10:03:06.306Z,14.10
2022-08-03T10:13:17.399Z,10.80
2022-08-03T10:23:24.096Z,13.00
2022-08-03T10:33:51.082Z,11.30
2022-08-03T10:44:05.791Z,10.40
2022-08-03T10:55:03.560Z,13.50
2022-08-03T11:05:28.735Z,13.70
2022-08-03T11:15:35.854Z,12.60
2022-08-03T11:26:12.995Z,11.30
2022-08-03T11:36:32.383Z,10.10
2022-08-03T11:46:41.147Z,12.10
2022-08-03T11:56:49.454Z,12.70
2022-08-03T12:07:02.648Z,13.40
2022-08-03T12:17:09.017Z,13.80
2022-08-03T12:27:25.506Z,15.20
2022-08-03T12:37:32.653Z,15.40
2022-08-03T12:47:55.839Z,13.10
2022-08-03T12:58:02.869Z,15.70
2022-08-03T13:08:19.633Z,15.40
2022-08-03T13:18:26.062Z,16.10
2022-08-03T13:28:32.990Z,18.90
2022-08-03T13:38:39.506Z,17.30
2022-08-03T13:48:46.135Z,14.10
2022-08-03T13:58:52.458Z,15.30
2022-08-03T14:09:00.651Z,15.20
2022-08-03T14:19:07.440Z,14.00
2022-08-03T14:29:14.623Z,15.20
2022-08-03T14:39:21.009Z,17.70
2022-08-03T14:50:31.339Z,15.50
2022-08-03T14:59:56.922Z,16.30
2022-08-03T15:10:04.080Z,14.80
2022-08-03T15:20:24.204Z,16.20
2022-08-03T15:30:38.839Z,16.30
2022-08-03T15:40:45.175Z,14.70
2022-08-03T15:50:53.332Z,12.20
2022-08-03T16:01:00.210Z,12.80
2022-08-03T16:11:06.568Z,15.10
2022-08-03T16:21:14.812Z,13.30
2022-08-03T16:31:28.387Z,16.30
2022-08-03T16:41:53.872Z,15.80
2022-08-03T16:52:00.987Z,13.30
2022-08-03T17:02:10.390Z,11.70
2022-08-03T17:12:18.619Z,12.40
2022-08-03T17:22:33.646Z,12.80
2022-08-03T17:32:57.655Z,12.20
2022-08-03T17:44:08.174Z,13.50
2022-08-03T17:53:34.699Z,13.50
2022-08-03T18:03:58.286Z,12.70
2022-08-03T18:14:25.537Z,13.50
2022-08-03T18:24:32.347Z,15.50
2022-08-03T18:34:53.037Z,13.50
2022-08-03T18:45:14.784Z,13.20
2022-08-03T18:55:35.630Z,13.80
2022-08-03T19:06:14.464Z,13.30
2022-08-03T19:16:38.739Z,13.70
2022-08-03T19:26:48.590Z,14.10
2022-08-03T19:37:02.489Z,14.20
2022-08-03T19:47:16.893Z,12.80
2022-08-03T19:57:26.748Z,13.60
2022-08-03T20:07:34.110Z,14.50
2022-08-03T20:17:55.180Z,17.70
2022-08-03T20:28:13.938Z,14.70
2022-08-03T20:38:19.695Z,15.45
2022-08-03T20:48:26.923Z,15.50
2022-08-03T20:58:33.813Z,15.40
2022-08-03T21:08:46.882Z,15.80
2022-08-03T21:18:55.258Z,16.30
2022-08-03T21:29:04.796Z,16.80
2022-08-03T21:39:12.160Z,17.50
2022-08-03T21:50:06.777Z,17.10
2022-08-03T21:59:49.656Z,16.70
2022-08-03T22:09:57.049Z,17.80
2022-08-03T22:20:04.048Z,17.20
2022-08-03T22:30:20.373Z,17.20
2022-08-03T22:40:27.901Z,17.30
2022-08-03T22:50:34.607Z,19.80
2022-08-03T23:00:45.671Z,18.80
2022-08-03T23:11:05.877Z,18.60
2022-08-03T23:21:15.257Z,17.80
2022-08-03T23:31:22.715Z,17.80
2022-08-03T23:41:30.724Z,18.60
2022-08-03T23:51:58.785Z,18.80
